weather.gov     
National Weather Service

Terminal Aerodrome Forecast
NWS Homepage
This page is being discontinued on March 12, 2014.
The same data is available at this site. Please update your bookmarks.
Thank you, and we apologize for the inconvenience.
Please send an email to SR-SRH.Webmaster@noaa.gov with any concerns.


Current Version
Previous Version:    01  02  03  04  05  06  07  08  09  10  11  12  13  14  15  16  17  18  19  20  21  22  23  24  25  26  27  28  29  
[Printable]
299
FTUS43 KGRB 192300
TAFCWA
TAF
KCWA 192320Z 2000/2024 16014KT P6SM SCT080 OVC120
     FM200100 16010KT P6SM SCT035 OVC080 WS012/18040KT
      TEMPO 2002/2006 -RA BKN035
     FM200900 19007KT 5SM BR SCT025 OVC040 WS012/21040KT
     FM201500 22006KT 6SM HZ BKN035 OVC060
      AMD LTD TO CLD VIS AND WIND 2003/2011=


U.S. Dept. of Commerce
NOAA National Weather Service
1325 East West Highway
Silver Spring, MD 20910
E-mail: w-nws.webmaster@noaa.gov
Page last modified: May 16, 2007
NATIONAL WEATHER SERVICE: for Safety, for Work, for Fun - FOR LIFE